Flight Number: EUR1131 Duration: 1:10
Departure: Gatwick Airport (EGKK) at 07:50 Distance: 370 Nm
Arrival: Basel-Mulhouse (LFSB) at 09:00 Equipment: A321

Weather Information
London / Gatwick Airport, United Kingdom (EGKK) 51-09N 000-11W 0M Sep 21, 2017 - 04:50 PM EDT / 2017.09.21 2050 UTC
Wind: from the SSW (210 degrees) at 5 MPH (4 KT):0
Visibility: 4 mile(s):0
Sky conditions: partly cloudy Temperature: 55 F (13 C) Dew Point: 53 F (12 C) Relative Humidity: 93% Pressure (altimeter): 30.06 in. Hg (1018 hPa)
ob: EGKK 212050Z 21004KT 8000 SCT042 13/12 Q1018 cycle: 21
Sunrise: 05:50 Sunset: 17:57 (UTC)

Bale-Mulhouse, France (LFSB) 47-36N 007-31E 271M Sep 21, 2017 - 05:00 PM EDT / 2017.09.21 2100 UTC
Wind: from the SW (230 degrees) at 2 MPH (2 KT):0
Visibility: greater than 7 mile(s):0 Temperature: 46 F (8 C) Dew Point: 44 F (7 C) Relative Humidity: 93% Pressure (altimeter): 30.12 in. Hg (1020 hPa)
ob: LFSB 212100Z 23002KT CAVOK 08/07 Q1020 NOSIG cycle: 21
Sunrise: 05:19 Sunset: 17:25 (UTC)

TAF:2017/09/21 18:21 TAF LFSB 211700Z 2118/2218 VRB03KT CAVOK PROB40 TEMPO 2123/2206 3000 BCFG

Previous Pireps for this route
Date Aircraft Flight time Fuel used Landing rate On time
2012-11-13B73701.3013217-102Yes
2012-11-21A32101.207933-388No
2013-01-06B73701.236734-271Yes
2013-01-14B73701.277657-204Yes
2013-02-03B73701.207604-226No
2013-06-09B73701.046400-368No
2013-07-10B73701.188800-145No
2013-07-28B73701.3112913-567No
2013-10-09A3211.16100500No
2013-10-15B7371.1575000No
2014-02-10B73701.4411685-131No
2014-05-14A32101.228153-291Yes
2014-08-14B73701.208225-175No
2014-11-17B73701.237853-96No
2015-03-10A32101.19-1039-238Yes
2015-04-06B73702.0213553-241No
2015-04-22CRJ7001.0438770Charter
2015-05-25A32101.439503-129Yes
2015-05-26A32101.369336-219Yes
2015-07-20A32101.287930-134Yes
2016-02-28CRJ70001.116247-175Charter
2016-07-11A3211.158127-699No
(pireps marked green are flown by you)

Route map